Time;durP1;ratioP1;P1;durP2;ratioP2;P2;SDS_P1;SDS_P2;PMS_P1;PMS_P2;Temp;Humidity;BMP_temperature;BMP_pressure;BME280_temperature;BME280_humidity;BME280_pressure;Samples;Min_cycle;Max_cycle;Signal;HPM_P1;HPM_P2
2022/11/17 00:01:51;;;;;;;91.30;24.98;;;;;;;7.19;97.86;97564.25;1821000;78;21494;-79
2022/11/17 00:04:17;;;;;;;76.97;24.02;;;;;;;7.17;98.29;97560.88;1807369;78;21006;-79
2022/11/17 00:06:44;;;;;;;76.77;23.12;;;;;;;7.17;98.21;97543.62;1802083;78;20971;-79
2022/11/17 00:09:16;;;;;;;81.60;23.25;;;;;;;7.17;98.22;97545.37;1800846;78;21079;-79
2022/11/17 00:14:31;;;;;;;78.20;21.62;;;;;;;7.12;98.31;97550.71;1804122;78;20951;-78
2022/11/17 00:17:04;;;;;;;76.33;22.55;;;;;;;7.13;98.34;97551.55;1806080;78;21571;-78
2022/11/17 00:22:15;;;;;;;69.58;20.32;;;;;;;7.11;98.03;97554.17;1811249;77;20973;-79
2022/11/17 00:24:42;;;;;;;56.53;19.25;;;;;;;7.13;98.14;97551.55;1839476;77;21533;-80
2022/11/17 00:27:09;;;;;;;59.18;19.30;;;;;;;7.14;98.08;97553.22;1828255;77;20997;-79
2022/11/17 00:29:35;;;;;;;64.42;20.00;;;;;;;7.14;98.10;97551.50;1808162;77;21115;-80
2022/11/17 00:34:03;;;;;;;57.60;20.35;;;;;;;7.17;97.82;97550.08;1837587;77;21038;-79
2022/11/17 00:34:40;;;;;;;69.72;21.80;;;;;;;7.15;97.86;97548.45;1824434;77;20977;-80
2022/11/17 00:37:09;;;;;;;62.30;20.20;;;;;;;7.16;97.85;97545.83;1855591;77;21034;-79
2022/11/17 00:39:35;;;;;;;58.87;20.17;;;;;;;7.16;97.82;97541.95;1819470;77;20969;-79
2022/11/17 00:42:02;;;;;;;64.62;20.55;;;;;;;7.14;97.95;97541.16;1825018;77;21062;-79
2022/11/17 00:44:29;;;;;;;62.95;20.77;;;;;;;7.14;98.14;97546.33;1822005;77;20977;-78
2022/11/17 00:46:56;;;;;;;73.25;20.05;;;;;;;7.17;98.18;97533.73;1823316;76;20965;-80
2022/11/17 00:49:25;;;;;;;57.38;18.62;;;;;;;7.16;98.07;97532.91;1826036;77;20989;-79
2022/11/17 00:51:56;;;;;;;54.90;19.77;;;;;;;7.21;98.20;97527.55;1825608;77;20985;-80
2022/11/17 00:54:23;;;;;;;47.85;17.87;;;;;;;7.24;98.25;97520.99;1823415;77;20993;-80
2022/11/17 00:56:49;;;;;;;58.95;19.07;;;;;;;7.27;98.12;97517.45;1818217;77;20989;-79
2022/11/17 00:59:16;;;;;;;62.78;19.12;;;;;;;7.34;98.30;97516.30;1818308;77;21422;-79
2022/11/17 01:02:13;;;;;;;61.88;21.68;;;;;;;7.40;98.21;97516.52;1816769;77;21029;-80
2022/11/17 01:04:40;;;;;;;66.53;21.70;;;;;;;7.37;97.73;97509.28;1842533;77;21267;-80
2022/11/17 01:07:07;;;;;;;63.42;21.73;;;;;;;7.34;97.79;97513.28;1847874;77;20977;-80
2022/11/17 01:09:34;;;;;;;69.05;21.42;;;;;;;7.38;98.01;97504.94;1788893;77;22180;-80
2022/11/17 01:12:01;;;;;;;65.97;22.27;;;;;;;7.41;98.00;97505.30;1818272;77;21001;-79
2022/11/17 01:14:31;;;;;;;62.95;22.42;;;;;;;7.44;98.07;97502.16;1833335;77;21031;-79
2022/11/17 01:16:58;;;;;;;62.05;23.50;;;;;;;7.44;97.79;97492.23;1804731;77;21001;-80
2022/11/17 01:19:25;;;;;;;61.42;19.98;;;;;;;7.40;97.51;97487.66;1824665;77;21595;-79
2022/11/17 01:21:52;;;;;;;63.00;21.55;;;;;;;7.39;97.54;97488.55;1833577;77;21027;-80
2022/11/17 01:24:19;;;;;;;65.90;20.75;;;;;;;7.39;97.61;97491.59;1813657;78;20994;-80
2022/11/17 01:26:46;;;;;;;70.65;23.67;;;;;;;7.37;97.68;97487.30;1811612;78;21089;-79
2022/11/17 01:29:17;;;;;;;60.23;21.80;;;;;;;7.37;97.59;97482.12;1799539;78;21025;-80
2022/11/17 01:31:48;;;;;;;66.35;22.75;;;;;;;7.31;97.48;97470.73;1812765;78;21003;-79
2022/11/17 01:34:15;;;;;;;71.30;22.10;;;;;;;7.29;97.42;97474.28;1799644;78;20995;-81
2022/11/17 01:39:30;;;;;;;63.08;19.25;;;;;;;7.24;97.54;97473.60;1810781;77;21086;-79
2022/11/17 01:42:04;;;;;;;56.70;20.05;;;;;;;7.23;97.70;97475.81;1811919;78;21007;-79
2022/11/17 01:45:21;;;;;;;63.63;20.72;;;;;;;7.22;97.40;97468.52;1809990;78;21042;-79
2022/11/17 01:47:57;;;;;;;63.45;21.52;;;;;;;7.23;97.22;97468.89;1814635;78;20982;-78
2022/11/17 01:50:38;;;;;;;60.33;21.55;;;;;;;7.24;97.54;97455.08;1799568;77;21015;-79
2022/11/17 01:53:10;;;;;;;67.12;20.57;;;;;;;7.24;97.64;97449.91;1811967;78;21591;-80
2022/11/17 01:55:41;;;;;;;70.75;22.65;;;;;;;7.25;97.91;97452.88;1800876;78;20975;-79
2022/11/17 01:58:16;;;;;;;56.55;18.32;;;;;;;7.27;97.73;97447.20;1815937;78;20991;-79
2022/11/17 02:00:43;;;;;;;63.38;20.27;;;;;;;7.28;97.78;97446.31;1800812;78;21546;-79
2022/11/17 02:03:10;;;;;;;55.30;18.95;;;;;;;7.29;97.79;97439.39;1821928;78;20968;-80
2022/11/17 02:06:08;;;;;;;65.60;20.75;;;;;;;7.30;97.86;97432.87;1832308;77;21925;-80
2022/11/17 02:08:38;;;;;;;53.95;17.82;;;;;;;7.36;98.11;97435.22;1808921;78;21034;-79
2022/11/17 02:11:10;;;;;;;57.80;18.12;;;;;;;7.40;97.98;97433.79;1823017;76;20967;-79
2022/11/17 02:13:38;;;;;;;58.35;19.55;;;;;;;7.41;97.74;97434.20;1821977;78;21032;-80
2022/11/17 02:16:11;;;;;;;57.00;20.55;;;;;;;7.43;97.99;97425.47;1799152;76;21030;-79
2022/11/17 02:18:41;;;;;;;66.55;19.65;;;;;;;7.48;97.90;97420.11;1818898;76;21022;-80
2022/11/17 02:21:24;;;;;;;60.60;19.75;;;;;;;7.46;97.56;97417.61;1820729;78;21064;-80
2022/11/17 02:24:11;;;;;;;;;;;;;;;7.48;97.76;97416.23;1809266;77;21052;-82
2022/11/17 02:26:55;;;;;;;58.70;20.32;;;;;;;7.50;97.76;97417.01;1808199;77;20127;-79
2022/11/17 02:29:33;;;;;;;66.75;23.67;;;;;;;7.50;97.59;97415.72;1789644;78;21080;-79
2022/11/17 02:32:14;;;;;;;72.45;23.35;;;;;;;7.46;97.47;97416.73;1810260;77;21532;-79
2022/11/17 02:35:29;;;;;;;63.45;22.50;;;;;;;7.42;97.57;97410.88;1825910;77;21052;-80
2022/11/17 02:38:28;;;;;;;63.17;21.33;;;;;;;7.35;97.18;97409.42;1834877;76;20943;-79
2022/11/17 02:41:33;;;;;;;71.77;22.10;;;;;;;7.24;96.95;97403.39;1824518;77;21013;-79
2022/11/17 02:44:09;;;;;;;69.30;24.55;;;;;;;7.19;97.54;97406.58;1833379;77;21025;-77
2022/11/17 02:46:55;;;;;;;70.92;21.85;;;;;;;7.15;97.69;97406.31;1815896;77;21036;-79
2022/11/17 02:49:27;;;;;;;68.30;24.00;;;;;;;7.12;97.75;97399.53;1829196;77;20973;-80
2022/11/17 02:51:57;;;;;;;67.75;24.90;;;;;;;7.13;98.28;97395.20;1832936;76;21509;-79
2022/11/17 02:54:28;;;;;;;71.72;23.52;;;;;;;7.10;98.41;97392.71;1811231;77;21512;-79
2022/11/17 02:56:55;;;;;;;65.15;23.38;;;;;;;7.07;98.07;97388.52;1810423;77;21028;-79
2022/11/17 02:59:35;;;;;;;67.85;23.18;;;;;;;7.04;97.81;97389.08;1764379;81;21531;-79
2022/11/17 03:02:29;;;;;;;69.80;19.50;;;;;;;7.02;98.21;97392.17;1797195;79;21908;-77
2022/11/17 03:05:29;;;;;;;57.48;19.85;;;;;;;7.02;98.31;97385.70;1784026;79;20978;-76
2022/11/17 03:08:33;;;;;;;58.65;21.97;;;;;;;6.99;97.61;97389.72;1799563;79;20998;-78
2022/11/17 03:11:03;;;;;;;59.10;20.52;;;;;;;6.98;98.46;97387.56;1805375;79;21018;-78
2022/11/17 03:14:04;;;;;;;61.83;22.05;;;;;;;7.00;98.18;97383.17;1813322;79;21009;-79
2022/11/17 03:16:39;;;;;;;63.98;23.45;;;;;;;7.01;98.39;97381.00;1805532;79;21001;-77
2022/11/17 03:19:17;;;;;;;65.08;23.62;;;;;;;7.03;98.17;97379.20;1798248;79;20986;-76
2022/11/17 03:21:55;;;;;;;101.22;41.77;;;;;;;7.08;98.73;97381.17;1807687;78;21058;-79
2022/11/17 03:24:29;;;;;;;110.12;37.85;;;;;;;7.12;98.86;97372.39;1796874;78;21518;-79
2022/11/17 03:27:28;;;;;;;77.87;30.10;;;;;;;7.17;98.93;97367.03;1814489;78;20988;-79
2022/11/17 03:30:02;;;;;;;75.52;27.35;;;;;;;7.22;98.95;97356.08;1796792;78;21070;-79
2022/11/17 03:32:33;;;;;;;77.27;28.87;;;;;;;7.30;99.20;97355.75;1815342;78;21068;-77
2022/11/17 03:35:07;;;;;;;74.65;29.02;;;;;;;7.30;98.42;97359.20;1805991;78;21020;-76
2022/11/17 03:37:38;;;;;;;62.23;24.63;;;;;;;7.31;98.62;97367.33;1829262;78;21496;-78
2022/11/17 03:40:09;;;;;;;57.23;23.02;;;;;;;7.36;98.74;97355.08;1799159;78;21503;-77
2022/11/17 03:42:40;;;;;;;60.88;23.67;;;;;;;7.40;98.71;97357.52;1815623;78;20956;-77
2022/11/17 03:45:17;;;;;;;56.37;22.87;;;;;;;7.42;98.57;97366.92;1810267;78;21542;-76
2022/11/17 03:47:45;;;;;;;63.58;23.62;;;;;;;7.46;98.57;97355.98;1822965;78;21015;-77
2022/11/17 03:50:20;;;;;;;53.40;21.82;;;;;;;7.50;98.46;97354.95;1814241;78;20999;-78
2022/11/17 03:52:48;;;;;;;52.67;20.92;;;;;;;7.54;98.40;97360.38;1799312;78;21598;-76
2022/11/17 03:55:15;;;;;;;65.70;25.10;;;;;;;7.56;98.20;97352.14;1816404;78;21034;-79
2022/11/17 03:57:53;;;;;;;59.67;23.62;;;;;;;7.57;98.16;97355.94;1801281;78;21159;-77
2022/11/17 04:00:20;;;;;;;58.20;24.40;;;;;;;7.63;98.47;97350.97;1815608;78;20979;-79
2022/11/17 04:02:52;;;;;;;57.25;23.55;;;;;;;7.67;98.25;97356.86;1794480;78;21010;-80
2022/11/17 04:05:18;;;;;;;61.90;23.20;;;;;;;7.67;98.03;97351.23;1811806;78;21071;-79
2022/11/17 04:07:47;;;;;;;62.40;22.85;;;;;;;7.68;97.88;97352.92;1817034;78;21031;-80
2022/11/17 04:10:18;;;;;;;60.67;23.73;;;;;;;7.66;97.65;97347.41;1803111;78;21010;-79
2022/11/17 04:18:18;;;;;;;58.98;21.62;;;;;;;7.54;97.61;97349.61;1824329;78;20960;-79
2022/11/17 04:20:45;;;;;;;65.78;22.95;;;;;;;7.50;97.83;97346.77;1804965;78;21035;-78
2022/11/17 04:23:14;;;;;;;60.75;22.30;;;;;;;7.47;97.99;97346.88;1794440;78;21107;-79
2022/11/17 04:28:36;;;;;;;67.17;21.02;;;;;;;7.42;98.04;97344.08;1795838;78;20975;-79
2022/11/17 04:31:19;;;;;;;66.60;21.02;;;;;;;7.37;97.92;97345.11;1804091;78;21043;-78
2022/11/17 04:33:48;;;;;;;64.92;21.93;;;;;;;7.31;98.05;97338.89;1817223;78;21018;-79
2022/11/17 04:36:18;;;;;;;69.55;25.48;;;;;;;7.30;98.09;97334.64;1808956;78;21876;-79
2022/11/17 04:38:49;;;;;;;71.67;23.27;;;;;;;7.30;97.90;97337.66;1819357;78;21018;-79
2022/11/17 04:44:05;;;;;;;57.90;20.60;;;;;;;7.23;98.50;97348.70;1794792;78;21109;-79
2022/11/17 04:46:33;;;;;;;68.22;23.60;;;;;;;7.24;98.93;97338.77;1799307;78;21046;-79
2022/11/17 04:49:01;;;;;;;65.42;23.95;;;;;;;7.25;98.78;97337.02;1820461;78;21075;-78
2022/11/17 04:51:29;;;;;;;73.30;24.23;;;;;;;7.22;98.69;97343.16;1815691;78;20976;-79
2022/11/17 04:53:56;;;;;;;63.05;21.65;;;;;;;7.24;99.02;97340.48;1826084;78;21037;-78
2022/11/17 04:56:24;;;;;;;64.58;22.95;;;;;;;7.25;99.04;97341.73;1795986;78;21015;-81
2022/11/17 04:58:51;;;;;;;57.67;20.30;;;;;;;7.27;98.93;97337.34;1806098;78;21060;-79
2022/11/17 05:01:19;;;;;;;65.30;20.48;;;;;;;7.28;99.03;97339.03;1796554;78;21495;-79
2022/11/17 05:03:53;;;;;;;55.08;20.32;;;;;;;7.29;98.97;97332.11;1810498;77;21039;-80
2022/11/17 05:06:24;;;;;;;50.73;19.48;;;;;;;7.30;98.95;97332.06;1819963;78;20967;-78
2022/11/17 05:08:54;;;;;;;48.65;19.37;;;;;;;7.31;99.22;97325.14;1774999;79;21885;-80
2022/11/17 05:14:09;;;;;;;55.80;20.37;;;;;;;7.31;99.32;97315.63;1808045;78;21059;-79
2022/11/17 05:19:25;;;;;;;46.73;17.05;;;;;;;7.33;99.41;97303.94;1793778;78;21090;-79
2022/11/17 05:21:52;;;;;;;48.15;18.50;;;;;;;7.30;99.33;97301.04;1822228;78;21591;-79
2022/11/17 05:24:19;;;;;;;50.08;21.40;;;;;;;7.33;98.98;97300.06;1784305;79;21079;-80
2022/11/17 05:26:48;;;;;;;47.48;19.77;;;;;;;7.29;99.44;97301.92;1809269;77;21106;-79
2022/11/17 05:29:18;;;;;;;45.63;19.55;;;;;;;7.29;99.12;97307.55;1794919;79;21004;-79
2022/11/17 05:31:45;;;;;;;48.90;19.90;;;;;;;7.27;99.14;97305.48;1803636;79;20999;-79
2022/11/17 05:34:16;;;;;;;51.83;20.65;;;;;;;7.19;99.49;97304.95;1789857;79;21028;-79
2022/11/17 05:36:43;;;;;;;52.85;21.25;;;;;;;7.14;99.95;97296.07;1782596;78;21015;-80
2022/11/17 05:39:09;;;;;;;45.95;21.52;;;;;;;7.13;98.77;97301.70;1787003;77;20964;-80
2022/11/17 05:41:36;;;;;;;46.15;18.87;;;;;;;7.07;99.70;97294.66;1797988;77;21440;-80
2022/11/17 05:44:04;;;;;;;40.60;16.17;;;;;;;7.04;99.22;97305.09;1804096;78;21031;-79
2022/11/17 05:46:30;;;;;;;48.70;18.80;;;;;;;7.02;98.95;97309.48;1781257;79;21548;-77
2022/11/17 05:48:57;;;;;;;52.78;19.50;;;;;;;6.94;100.00;97320.98;1786142;78;21020;-78
2022/11/17 05:51:24;;;;;;;46.35;17.65;;;;;;;6.95;100.00;97314.06;1807597;78;21024;-79
2022/11/17 05:53:50;;;;;;;49.35;20.30;;;;;;;6.93;100.00;97308.95;1797154;78;21488;-79
2022/11/17 05:56:40;;;;;;;42.90;19.42;;;;;;;6.96;100.00;97308.84;1797026;77;21004;-79
2022/11/17 05:59:21;;;;;;;40.40;17.70;;;;;;;6.93;100.00;97311.98;1811427;79;21091;-79
2022/11/17 06:02:15;;;;;;;48.28;19.85;;;;;;;6.95;100.00;97307.60;1808865;77;21023;-79
2022/11/17 06:04:43;;;;;;;49.37;21.47;;;;;;;6.96;100.00;97316.59;1786800;79;21055;-80
2022/11/17 06:07:10;;;;;;;45.25;19.87;;;;;;;6.98;100.00;97317.80;1793584;79;21369;-77
2022/11/17 06:09:40;;;;;;;43.05;20.82;;;;;;;7.03;100.00;97320.23;1803447;79;21580;-79
2022/11/17 06:12:08;;;;;;;51.33;23.05;;;;;;;7.05;100.00;97328.76;1792560;77;21000;-77
2022/11/17 06:14:36;;;;;;;47.70;22.60;;;;;;;7.09;100.00;97334.20;1805001;77;21012;-79
2022/11/17 06:17:08;;;;;;;46.23;20.48;;;;;;;7.14;100.00;97330.53;1792340;79;21040;-78
2022/11/17 06:19:42;;;;;;;47.27;19.00;;;;;;;7.16;100.00;97326.57;1805447;79;21015;-80
2022/11/17 06:22:09;;;;;;;37.55;18.32;;;;;;;7.19;100.00;97330.80;1815202;77;21311;-80
2022/11/17 06:24:37;;;;;;;37.30;18.32;;;;;;;7.24;100.00;97329.72;1829533;78;21000;-79
2022/11/17 06:27:05;;;;;;;28.20;14.20;;;;;;;7.28;100.00;97328.69;1814827;78;20963;-80
2022/11/17 06:29:32;;;;;;;29.52;15.15;;;;;;;7.30;100.00;97334.64;1817825;78;21071;-79
2022/11/17 06:31:59;;;;;;;30.52;14.03;;;;;;;7.33;100.00;97338.38;1819859;78;21486;-79
2022/11/17 06:34:27;;;;;;;34.00;16.20;;;;;;;7.34;100.00;97336.62;1819926;78;21022;-79
2022/11/17 06:36:54;;;;;;;32.50;15.13;;;;;;;7.36;100.00;97338.27;1816511;78;21596;-80
2022/11/17 06:39:21;;;;;;;31.42;14.03;;;;;;;7.43;100.00;97339.31;1812788;78;22037;-80
2022/11/17 06:41:47;;;;;;;26.73;14.28;;;;;;;7.49;100.00;97342.94;1824920;77;21043;-79
2022/11/17 06:44:14;;;;;;;29.63;14.07;;;;;;;7.50;100.00;97329.95;1803546;77;21023;-79
2022/11/17 06:46:41;;;;;;;29.23;14.63;;;;;;;7.59;100.00;97337.77;1822755;77;21114;-79
2022/11/17 06:49:08;;;;;;;28.55;14.28;;;;;;;7.63;100.00;97334.16;1823016;78;21002;-79
2022/11/17 06:51:35;;;;;;;25.08;12.82;;;;;;;7.70;100.00;97329.56;1828539;78;20991;-80
2022/11/17 06:54:02;;;;;;;26.12;14.38;;;;;;;7.73;100.00;97335.45;1811443;78;21007;-80
2022/11/17 06:56:29;;;;;;;26.62;14.03;;;;;;;7.79;100.00;97320.59;1809551;78;21035;-78
2022/11/17 06:58:56;;;;;;;25.82;12.33;;;;;;;7.86;100.00;97312.94;1806606;78;21055;-78
2022/11/17 07:01:22;;;;;;;27.65;13.38;;;;;;;7.91;100.00;97313.14;1799739;78;21510;-79
2022/11/17 07:03:49;;;;;;;33.60;12.82;;;;;;;7.94;100.00;97321.24;1801890;77;21011;-80
2022/11/17 07:06:17;;;;;;;23.15;12.73;;;;;;;7.97;100.00;97317.22;1827167;77;21007;-79
2022/11/17 07:08:44;;;;;;;20.00;11.53;;;;;;;8.03;100.00;97319.53;1813628;78;21058;-80
2022/11/17 07:11:15;;;;;;;23.70;12.05;;;;;;;8.05;100.00;97316.89;1810964;78;21491;-79
2022/11/17 07:13:42;;;;;;;24.72;10.95;;;;;;;8.12;100.00;97319.14;1803017;78;21514;-81
2022/11/17 07:16:13;;;;;;;20.27;10.08;;;;;;;8.20;100.00;97325.28;1797344;78;21111;-79
2022/11/17 07:18:41;;;;;;;21.35;10.32;;;;;;;8.25;100.00;97325.91;1803276;78;21436;-79
2022/11/17 07:21:10;;;;;;;22.27;10.25;;;;;;;8.33;100.00;97325.58;1813041;77;21480;-80
2022/11/17 07:23:39;;;;;;;19.07;10.18;;;;;;;8.40;100.00;97333.47;1800854;77;21019;-78
2022/11/17 07:26:06;;;;;;;17.57;9.55;;;;;;;8.45;100.00;97334.58;1821774;78;20951;-79
2022/11/17 07:28:34;;;;;;;18.42;8.95;;;;;;;8.52;100.00;97337.30;1824561;78;21019;-79
2022/11/17 07:31:06;;;;;;;18.77;9.15;;;;;;;8.58;100.00;97336.19;1813437;78;21023;-80
2022/11/17 07:33:33;;;;;;;14.83;8.95;;;;;;;8.67;100.00;97343.52;1797542;78;20932;-78
2022/11/17 07:36:08;;;;;;;17.60;8.98;;;;;;;8.69;100.00;97345.12;1806042;78;20983;-80
2022/11/17 07:38:38;;;;;;;14.98;9.33;;;;;;;8.75;100.00;97342.28;1800258;78;21004;-81
2022/11/17 07:41:05;;;;;;;13.25;7.78;;;;;;;8.83;100.00;97349.67;1813317;78;21039;-83
2022/11/17 07:43:33;;;;;;;14.35;8.33;;;;;;;8.88;100.00;97345.13;1784497;78;21046;-82
2022/11/17 07:46:09;;;;;;;14.43;8.75;;;;;;;8.93;100.00;97344.91;1802624;78;21007;-84
2022/11/17 07:48:35;;;;;;;12.68;7.10;;;;;;;9.00;100.00;97350.67;1776372;79;21040;-78
2022/11/17 07:51:03;;;;;;;13.18;7.12;;;;;;;9.06;100.00;97351.67;1821288;78;20992;-77
2022/11/17 07:53:32;;;;;;;12.70;6.33;;;;;;;9.09;100.00;97356.27;1805759;78;21050;-80
2022/11/17 07:56:07;;;;;;;10.55;5.90;;;;;;;9.19;100.00;97358.41;1795756;78;20953;-81
2022/11/17 07:58:36;;;;;;;15.68;6.95;;;;;;;9.22;100.00;97370.78;1804524;79;21587;-79
2022/11/17 08:01:08;;;;;;;12.18;6.50;;;;;;;9.25;100.00;97369.78;1814760;78;20968;-78
2022/11/17 08:03:35;;;;;;;13.05;6.60;;;;;;;9.30;100.00;97376.91;1803297;78;21927;-80
2022/11/17 08:06:04;;;;;;;14.80;6.10;;;;;;;9.33;100.00;97372.84;1811835;78;21071;-83
2022/11/17 08:08:31;;;;;;;10.13;5.55;;;;;;;9.40;100.00;97385.09;1805644;78;20996;-80
2022/11/17 08:11:06;;;;;;;10.32;6.30;;;;;;;9.49;100.00;97383.33;1815172;79;21031;-79
2022/11/17 08:13:33;;;;;;;10.03;5.85;;;;;;;9.51;100.00;97387.98;1794818;78;20936;-80
2022/11/17 08:15:59;;;;;;;8.40;5.50;;;;;;;9.59;100.00;97394.11;1791151;78;21487;-80
2022/11/17 08:18:27;;;;;;;11.35;6.50;;;;;;;9.66;100.00;97387.25;1804409;78;21043;-79
2022/11/17 08:21:07;;;;;;;11.95;5.15;;;;;;;9.67;100.00;97401.92;1788839;79;21059;-79
2022/11/17 08:23:34;;;;;;;10.10;5.55;;;;;;;9.76;100.00;97392.38;1775031;78;21339;-78
2022/11/17 08:26:02;;;;;;;14.03;5.87;;;;;;;9.84;100.00;97395.06;1802855;79;21524;-80
2022/11/17 08:28:29;;;;;;;12.40;5.87;;;;;;;9.89;100.00;97403.02;1750918;79;22186;-78
2022/11/17 08:30:56;;;;;;;11.90;6.12;;;;;;;9.96;100.00;97400.48;1773233;80;21055;-79
2022/11/17 08:33:22;;;;;;;13.83;6.70;;;;;;;10.05;100.00;97396.60;1764002;79;21065;-79
2022/11/17 08:35:49;;;;;;;10.00;5.90;;;;;;;10.18;100.00;97402.47;1800580;79;21585;-79
2022/11/17 08:38:15;;;;;;;9.78;5.22;;;;;;;10.24;100.00;97396.50;1777575;79;21533;-80
2022/11/17 08:40:42;;;;;;;9.25;5.67;;;;;;;10.32;99.79;97409.13;1794133;79;20990;-80
2022/11/17 08:43:09;;;;;;;8.80;4.53;;;;;;;10.39;98.99;97407.91;1786586;79;21031;-80
2022/11/17 08:45:35;;;;;;;6.72;3.92;;;;;;;10.45;97.81;97402.39;1788934;79;21009;-80
2022/11/17 08:48:02;;;;;;;9.88;4.35;;;;;;;10.52;98.39;97407.67;1778564;79;20964;-80
2022/11/17 08:50:29;;;;;;;6.58;3.42;;;;;;;10.58;98.03;97404.35;1761139;81;21047;-80
2022/11/17 08:52:55;;;;;;;5.22;2.85;;;;;;;10.61;97.14;97411.53;1812088;79;21560;-79
2022/11/17 08:55:22;;;;;;;5.78;3.33;;;;;;;10.65;97.56;97410.92;1786626;79;21043;-79
2022/11/17 08:57:48;;;;;;;5.55;3.20;;;;;;;10.73;97.02;97415.25;1811646;79;21069;-79
2022/11/17 09:00:18;;;;;;;5.12;2.95;;;;;;;10.75;95.75;97422.51;1779054;79;21106;-79
2022/11/17 09:02:44;;;;;;;5.90;3.20;;;;;;;10.79;95.14;97429.69;1797607;79;20992;-81
2022/11/17 09:05:11;;;;;;;8.13;3.15;;;;;;;10.83;95.25;97428.61;1810072;79;21507;-79
2022/11/17 09:07:38;;;;;;;5.70;3.22;;;;;;;10.90;95.33;97423.45;1795376;79;21024;-79
2022/11/17 09:10:08;;;;;;;5.62;3.05;;;;;;;10.91;93.41;97439.44;1799469;79;20994;-79
2022/11/17 09:12:34;;;;;;;5.47;2.83;;;;;;;10.98;94.33;97436.05;1804527;79;20986;-79
2022/11/17 09:15:00;;;;;;;5.22;2.80;;;;;;;11.09;94.31;97440.22;1784930;79;21902;-79
2022/11/17 09:17:27;;;;;;;6.42;3.12;;;;;;;11.13;94.16;97444.34;1792781;79;21011;-79
2022/11/17 09:19:53;;;;;;;5.45;2.95;;;;;;;11.18;93.52;97448.84;1812149;79;21069;-80
2022/11/17 09:22:20;;;;;;;7.80;3.15;;;;;;;11.24;93.65;97443.74;1824407;78;21068;-79
2022/11/17 09:24:47;;;;;;;4.90;3.17;;;;;;;11.31;92.87;97449.84;1809718;78;21049;-81
2022/11/17 09:27:13;;;;;;;5.62;3.12;;;;;;;11.37;92.93;97443.47;1776073;80;21090;-79
2022/11/17 09:29:39;;;;;;;6.30;3.50;;;;;;;11.42;91.49;97447.11;1810067;79;21089;-80
2022/11/17 09:32:06;;;;;;;4.90;2.35;;;;;;;11.38;90.14;97446.90;1784734;79;20977;-80
2022/11/17 09:34:33;;;;;;;4.80;2.87;;;;;;;11.44;91.12;97443.52;1799634;79;20958;-79
2022/11/17 09:36:59;;;;;;;7.22;2.45;;;;;;;11.39;89.74;97446.82;1801408;79;21519;-79
2022/11/17 09:39:26;;;;;;;6.70;2.80;;;;;;;11.43;89.95;97456.61;1787465;79;21469;-80
2022/11/17 09:41:55;;;;;;;4.05;2.35;;;;;;;11.47;90.16;97455.52;1785137;79;21323;-80
2022/11/17 09:44:38;;;;;;;4.62;2.85;;;;;;;11.53;91.33;97461.68;1812285;79;21409;-79
2022/11/17 09:47:26;;;;;;;3.92;2.40;;;;;;;11.53;90.58;97466.41;1788407;79;21041;-79
2022/11/17 09:50:28;;;;;;;4.33;2.70;;;;;;;11.54;88.84;97464.67;1813392;79;21005;-80
2022/11/17 09:53:23;;;;;;;5.08;2.70;;;;;;;11.59;90.00;97463.94;1794165;79;21005;-81
2022/11/17 09:56:00;;;;;;;3.83;2.05;;;;;;;11.62;89.25;97464.22;1786012;79;21050;-80
2022/11/17 09:58:56;;;;;;;4.58;2.60;;;;;;;11.60;88.11;97459.56;1789793;79;22110;-80
2022/11/17 10:01:22;;;;;;;4.00;2.70;;;;;;;11.55;86.27;97467.17;1809695;79;20963;-79
2022/11/17 10:03:50;;;;;;;6.60;2.50;;;;;;;11.49;86.75;97454.97;1799551;79;20962;-80
2022/11/17 10:06:37;;;;;;;4.15;2.35;;;;;;;11.48;86.51;97459.78;1789365;79;21022;-80
2022/11/17 10:09:38;;;;;;;4.72;2.65;;;;;;;11.37;86.51;97468.19;1794315;79;21041;-80
2022/11/17 10:12:28;;;;;;;4.70;2.80;;;;;;;11.31;86.54;97471.95;1793615;79;21041;-79
2022/11/17 10:14:56;;;;;;;5.53;3.00;;;;;;;11.24;85.42;97474.96;1806722;79;20998;-78
2022/11/17 10:17:22;;;;;;;5.67;3.20;;;;;;;11.22;85.28;97484.17;1810406;79;21123;-78
2022/11/17 10:19:49;;;;;;;6.15;3.20;;;;;;;11.06;85.60;97495.84;1786368;79;21450;-78
2022/11/17 10:22:24;;;;;;;7.78;3.92;;;;;;;11.03;86.60;97495.16;1812239;79;20998;-81
2022/11/17 10:24:57;;;;;;;7.72;4.45;;;;;;;10.92;86.69;97504.80;1796996;79;21004;-79
2022/11/17 10:27:28;;;;;;;7.87;4.30;;;;;;;10.82;86.66;97504.44;1820661;79;21547;-79
2022/11/17 10:30:05;;;;;;;7.08;3.42;;;;;;;10.75;87.03;97515.62;1797498;78;21052;-78
2022/11/17 10:32:38;;;;;;;6.17;3.45;;;;;;;10.63;87.42;97511.52;1789727;77;20964;-81
2022/11/17 10:35:20;;;;;;;8.23;3.60;;;;;;;10.66;87.72;97523.87;1775351;79;20948;-80
2022/11/17 10:38:02;;;;;;;6.42;3.47;;;;;;;10.57;87.97;97519.62;1789790;79;20972;-79
2022/11/17 10:40:44;;;;;;;7.03;3.80;;;;;;;10.50;88.38;97525.13;1796547;78;21019;-80
2022/11/17 10:43:16;;;;;;;7.40;4.30;;;;;;;10.49;88.97;97528.62;1822051;78;20968;-81
2022/11/17 10:45:53;;;;;;;7.28;3.55;;;;;;;10.46;89.33;97526.17;1799345;78;20945;-79
2022/11/17 10:48:28;;;;;;;7.60;4.20;;;;;;;10.42;89.23;97525.94;1788949;78;21026;-80
2022/11/17 10:51:01;;;;;;;7.47;3.72;;;;;;;10.45;89.31;97524.97;1810222;79;20957;-78
2022/11/17 10:53:31;;;;;;;;;;;;;;;10.45;89.29;97528.40;1824206;78;21050;-81
2022/11/17 10:56:18;;;;;;;7.40;3.62;;;;;;;10.43;88.86;97528.94;1796287;78;20163;-80
2022/11/17 10:59:14;;;;;;;6.45;3.87;;;;;;;10.41;88.16;97538.56;1806100;79;21064;-79
2022/11/17 11:01:44;;;;;;;6.67;3.70;;;;;;;10.41;87.97;97529.47;1799277;78;21020;-78
2022/11/17 11:04:33;;;;;;;7.15;4.12;;;;;;;10.44;87.96;97534.97;1788771;78;21014;-79
2022/11/17 11:07:21;;;;;;;9.05;4.72;;;;;;;10.49;88.36;97534.30;1803448;78;21023;-80
2022/11/17 11:10:02;;;;;;;7.45;4.10;;;;;;;10.52;88.03;97532.39;1789693;78;21554;-79
2022/11/17 11:12:34;;;;;;;6.65;3.50;;;;;;;10.49;86.89;97541.62;1804591;79;21444;-81
2022/11/17 11:15:05;;;;;;;8.68;3.12;;;;;;;10.53;87.18;97543.15;1823758;77;21050;-79
2022/11/17 11:17:31;;;;;;;4.97;3.05;;;;;;;10.52;86.46;97545.38;1795646;79;21067;-80
2022/11/17 11:19:58;;;;;;;5.10;2.87;;;;;;;10.52;86.58;97546.68;1816898;78;21610;-79
2022/11/17 11:22:57;;;;;;;8.58;2.45;;;;;;;10.50;85.91;97550.25;1794693;79;21006;-80
2022/11/17 11:25:43;;;;;;;5.30;2.72;;;;;;;10.52;86.03;97542.78;1757656;79;21031;-79
2022/11/17 11:28:38;;;;;;;5.90;2.95;;;;;;;10.50;86.84;97544.62;1797235;78;21008;-80
2022/11/17 11:31:31;;;;;;;5.72;2.77;;;;;;;10.46;86.48;97548.25;1807523;79;21134;-80
2022/11/17 11:34:37;;;;;;;5.03;3.27;;;;;;;10.42;86.03;97551.09;1820294;79;20968;-80
2022/11/17 11:37:14;;;;;;;4.70;2.83;;;;;;;10.45;86.30;97545.75;1794390;78;21423;-80
2022/11/17 11:40:13;;;;;;;5.97;2.70;;;;;;;10.40;85.79;97554.22;1797735;77;21011;-79
2022/11/17 11:43:20;;;;;;;5.78;3.00;;;;;;;10.39;85.99;97553.39;1794843;79;21056;-79
2022/11/17 11:46:14;;;;;;;4.35;2.27;;;;;;;10.30;85.42;97555.13;1791874;78;21046;-79
2022/11/17 11:48:40;;;;;;;4.97;2.75;;;;;;;10.34;85.85;97564.45;1799652;78;21035;-79
2022/11/17 11:51:20;;;;;;;6.78;3.10;;;;;;;10.31;85.81;97574.53;1818577;78;21011;-80
2022/11/17 11:53:55;;;;;;;4.55;2.55;;;;;;;10.31;85.66;97578.44;1791593;79;21028;-79
2022/11/17 11:56:31;;;;;;;5.70;2.50;;;;;;;10.29;85.95;97578.10;1788275;78;21051;-79
2022/11/17 11:59:14;;;;;;;7.30;3.37;;;;;;;10.28;86.51;97577.70;1793678;79;21514;-79
2022/11/17 12:02:13;;;;;;;6.10;3.30;;;;;;;10.30;86.42;97590.19;1787369;79;21522;-80
2022/11/17 12:05:20;;;;;;;5.75;3.12;;;;;;;10.20;86.11;97592.81;1732605;82;21007;-81
2022/11/17 12:08:01;;;;;;;10.58;3.60;;;;;;;10.14;86.19;97596.07;1798106;78;21014;-79
2022/11/17 12:10:33;;;;;;;7.10;3.20;;;;;;;10.13;85.92;97598.77;1806769;79;21003;-79
2022/11/17 12:13:01;;;;;;;8.15;3.55;;;;;;;10.09;86.30;97603.72;1791864;78;21026;-79
2022/11/17 12:15:32;;;;;;;6.70;3.80;;;;;;;10.03;86.93;97601.41;1807414;79;20983;-80
2022/11/17 12:18:20;;;;;;;8.35;3.70;;;;;;;10.04;86.90;97605.22;1790137;78;21003;-80
2022/11/17 12:21:05;;;;;;;7.70;3.60;;;;;;;10.02;86.99;97606.20;1780178;80;21018;-79